sensor_id;sensor_type;location;lat;lon;timestamp;pressure;altitude;pressure_sealevel;temperature;humidity
63194;BME280;49289;51.670;5.624;2022-11-04T00:01:07;100274.37;;;15.07;71.43
63194;BME280;49289;51.670;5.624;2022-11-04T00:02:54;100267.36;;;14.59;72.71
63194;BME280;49289;51.670;5.624;2022-11-04T00:04:42;100291.55;;;14.63;72.81
63194;BME280;49289;51.670;5.624;2022-11-04T00:06:29;100291.25;;;14.56;72.72
63194;BME280;49289;51.670;5.624;2022-11-04T00:08:16;100302.97;;;14.15;74.28
63194;BME280;49289;51.670;5.624;2022-11-04T00:11:55;100320.43;;;14.04;73.90
63194;BME280;49289;51.670;5.624;2022-11-04T00:13:42;100318.70;;;14.31;73.23
63194;BME280;49289;51.670;5.624;2022-11-04T00:15:31;100321.41;;;14.00;73.77
63194;BME280;49289;51.670;5.624;2022-11-04T00:17:20;100310.26;;;14.30;72.43
63194;BME280;49289;51.670;5.624;2022-11-04T00:19:07;100305.12;;;14.45;72.10
63194;BME280;49289;51.670;5.624;2022-11-04T00:20:55;100304.91;;;13.86;72.28
63194;BME280;49289;51.670;5.624;2022-11-04T00:22:46;100308.22;;;14.43;71.06
63194;BME280;49289;51.670;5.624;2022-11-04T00:24:30;100309.75;;;14.56;70.79
63194;BME280;49289;51.670;5.624;2022-11-04T00:26:18;100334.45;;;14.13;71.14
63194;BME280;49289;51.670;5.624;2022-11-04T00:28:14;100330.44;;;14.60;70.73
63194;BME280;49289;51.670;5.624;2022-11-04T00:30:02;100336.48;;;14.96;69.20
63194;BME280;49289;51.670;5.624;2022-11-04T00:31:49;100335.47;;;14.79;69.47
63194;BME280;49289;51.670;5.624;2022-11-04T00:33:37;100329.34;;;14.87;69.64
63194;BME280;49289;51.670;5.624;2022-11-04T00:35:25;100330.80;;;14.90;68.75
63194;BME280;49289;51.670;5.624;2022-11-04T00:37:13;100330.00;;;14.48;70.02
63194;BME280;49289;51.670;5.624;2022-11-04T00:39:03;100307.65;;;14.84;69.04
63194;BME280;49289;51.670;5.624;2022-11-04T00:40:51;100322.81;;;14.78;68.74
63194;BME280;49289;51.670;5.624;2022-11-04T00:42:40;100319.74;;;14.92;68.91
63194;BME280;49289;51.670;5.624;2022-11-04T00:44:28;100307.98;;;14.84;68.19
63194;BME280;49289;51.670;5.624;2022-11-04T00:46:16;100331.16;;;14.48;69.20
63194;BME280;49289;51.670;5.624;2022-11-04T00:48:03;100336.44;;;14.48;69.63
63194;BME280;49289;51.670;5.624;2022-11-04T00:49:50;100323.53;;;14.45;69.33
63194;BME280;49289;51.670;5.624;2022-11-04T00:51:37;100342.45;;;14.76;68.61
63194;BME280;49289;51.670;5.624;2022-11-04T00:53:24;100345.94;;;14.53;69.15
63194;BME280;49289;51.670;5.624;2022-11-04T00:55:12;100341.67;;;14.79;68.65
63194;BME280;49289;51.670;5.624;2022-11-04T00:57:00;100344.86;;;15.02;67.79
63194;BME280;49289;51.670;5.624;2022-11-04T00:58:48;100328.59;;;14.77;68.16
63194;BME280;49289;51.670;5.624;2022-11-04T01:00:36;100346.00;;;14.52;68.37
63194;BME280;49289;51.670;5.624;2022-11-04T01:03:10;100344.41;;;14.90;67.47
63194;BME280;49289;51.670;5.624;2022-11-04T01:04:58;100342.41;;;14.99;67.23
63194;BME280;49289;51.670;5.624;2022-11-04T01:06:46;100344.28;;;14.47;68.64
63194;BME280;49289;51.670;5.624;2022-11-04T01:08:33;100319.76;;;14.36;69.20
63194;BME280;49289;51.670;5.624;2022-11-04T01:10:21;100325.88;;;14.67;68.09
63194;BME280;49289;51.670;5.624;2022-11-04T01:12:08;100326.84;;;14.51;68.81
63194;BME280;49289;51.670;5.624;2022-11-04T01:13:55;100346.19;;;14.92;68.21
63194;BME280;49289;51.670;5.624;2022-11-04T01:15:42;100352.97;;;14.49;69.05
63194;BME280;49289;51.670;5.624;2022-11-04T01:17:29;100335.70;;;14.41;70.05
63194;BME280;49289;51.670;5.624;2022-11-04T01:19:16;100350.91;;;14.68;69.96
63194;BME280;49289;51.670;5.624;2022-11-04T01:21:05;100341.27;;;14.83;69.23
63194;BME280;49289;51.670;5.624;2022-11-04T01:22:37;100357.05;;;14.89;69.37
63194;BME280;49289;51.670;5.624;2022-11-04T01:24:24;100353.83;;;15.11;68.73
63194;BME280;49289;51.670;5.624;2022-11-04T01:26:11;100356.88;;;14.42;70.60
63194;BME280;49289;51.670;5.624;2022-11-04T01:27:58;100340.31;;;14.35;70.72
63194;BME280;49289;51.670;5.624;2022-11-04T01:29:45;100360.92;;;14.34;71.86
63194;BME280;49289;51.670;5.624;2022-11-04T01:31:32;100358.78;;;14.95;70.06
63194;BME280;49289;51.670;5.624;2022-11-04T01:33:19;100358.45;;;15.16;69.32
63194;BME280;49289;51.670;5.624;2022-11-04T01:35:07;100370.64;;;14.78;70.65
63194;BME280;49289;51.670;5.624;2022-11-04T01:36:54;100370.23;;;15.19;69.27
63194;BME280;49289;51.670;5.624;2022-11-04T01:38:41;100354.43;;;14.66;70.82
63194;BME280;49289;51.670;5.624;2022-11-04T01:40:28;100355.27;;;14.53;71.35
63194;BME280;49289;51.670;5.624;2022-11-04T01:42:19;100376.20;;;14.50;71.69
63194;BME280;49289;51.670;5.624;2022-11-04T01:44:44;100361.84;;;14.35;72.25
63194;BME280;49289;51.670;5.624;2022-11-04T01:45:55;100376.55;;;14.85;70.95
63194;BME280;49289;51.670;5.624;2022-11-04T01:47:41;100355.89;;;14.51;71.54
63194;BME280;49289;51.670;5.624;2022-11-04T01:49:31;100371.00;;;14.83;70.87
63194;BME280;49289;51.670;5.624;2022-11-04T01:51:19;100370.20;;;14.76;71.03
63194;BME280;49289;51.670;5.624;2022-11-04T01:53:07;100355.22;;;14.80;70.67
63194;BME280;49289;51.670;5.624;2022-11-04T01:54:54;100355.22;;;14.55;70.29
63194;BME280;49289;51.670;5.624;2022-11-04T01:56:40;100373.19;;;14.37;71.67
63194;BME280;49289;51.670;5.624;2022-11-04T01:58:29;100379.98;;;14.87;70.42
63194;BME280;49289;51.670;5.624;2022-11-04T02:00:18;100383.63;;;14.45;71.25
63194;BME280;49289;51.670;5.624;2022-11-04T02:02:05;100380.06;;;14.44;71.44
63194;BME280;49289;51.670;5.624;2022-11-04T02:03:55;100370.09;;;14.64;70.74
63194;BME280;49289;51.670;5.624;2022-11-04T02:05:40;100392.73;;;14.52;70.52
63194;BME280;49289;51.670;5.624;2022-11-04T02:07:27;100387.73;;;14.54;71.13
63194;BME280;49289;51.670;5.624;2022-11-04T02:09:14;100391.78;;;14.78;70.33
63194;BME280;49289;51.670;5.624;2022-11-04T02:11:02;100374.97;;;14.69;69.83
63194;BME280;49289;51.670;5.624;2022-11-04T02:12:49;100374.66;;;14.66;70.42
63194;BME280;49289;51.670;5.624;2022-11-04T02:14:36;100393.31;;;14.76;70.00
63194;BME280;49289;51.670;5.624;2022-11-04T02:16:27;100389.56;;;14.63;70.37
63194;BME280;49289;51.670;5.624;2022-11-04T02:18:31;100391.23;;;14.45;70.63
63194;BME280;49289;51.670;5.624;2022-11-04T02:20:34;100377.82;;;14.54;70.07
63194;BME280;49289;51.670;5.624;2022-11-04T02:22:51;100396.20;;;14.32;70.43
63194;BME280;49289;51.670;5.624;2022-11-04T02:25:04;100381.09;;;14.47;69.72
63194;BME280;49289;51.670;5.624;2022-11-04T02:27:09;100398.92;;;14.22;70.30
63194;BME280;49289;51.670;5.624;2022-11-04T02:29:10;100402.66;;;14.53;70.38
63194;BME280;49289;51.670;5.624;2022-11-04T02:30:59;100402.14;;;14.36;70.62
63194;BME280;49289;51.670;5.624;2022-11-04T02:34:52;100383.49;;;14.57;69.30
63194;BME280;49289;51.670;5.624;2022-11-04T02:36:41;100385.87;;;14.83;68.55
63194;BME280;49289;51.670;5.624;2022-11-04T02:38:30;100406.80;;;14.66;68.95
63194;BME280;49289;51.670;5.624;2022-11-04T02:40:21;100408.30;;;14.63;69.31
63194;BME280;49289;51.670;5.624;2022-11-04T02:42:10;100406.00;;;14.35;69.36
63194;BME280;49289;51.670;5.624;2022-11-04T02:44:03;100405.50;;;14.68;68.86
63194;BME280;49289;51.670;5.624;2022-11-04T02:45:49;100390.05;;;14.49;68.30
63194;BME280;49289;51.670;5.624;2022-11-04T02:47:35;100389.53;;;14.53;68.25
63194;BME280;49289;51.670;5.624;2022-11-04T02:49:24;100400.23;;;14.82;67.54
63194;BME280;49289;51.670;5.624;2022-11-04T02:51:13;100409.19;;;14.34;69.03
63194;BME280;49289;51.670;5.624;2022-11-04T02:53:01;100412.52;;;14.45;68.97
63194;BME280;49289;51.670;5.624;2022-11-04T02:54:49;100412.82;;;14.38;69.29
63194;BME280;49289;51.670;5.624;2022-11-04T02:56:37;100411.79;;;14.22;69.23
63194;BME280;49289;51.670;5.624;2022-11-04T02:58:27;100409.91;;;14.52;67.86
63194;BME280;49289;51.670;5.624;2022-11-04T03:00:14;100416.44;;;14.65;67.51
63194;BME280;49289;51.670;5.624;2022-11-04T03:02:02;100414.32;;;14.42;68.43
63194;BME280;49289;51.670;5.624;2022-11-04T03:03:50;100414.45;;;13.88;70.19
63194;BME280;49289;51.670;5.624;2022-11-04T03:05:38;100423.13;;;13.96;69.96
63194;BME280;49289;51.670;5.624;2022-11-04T03:07:26;100427.53;;;14.54;67.79
63194;BME280;49289;51.670;5.624;2022-11-04T03:09:12;100411.52;;;14.72;67.31
63194;BME280;49289;51.670;5.624;2022-11-04T03:11:00;100433.31;;;14.62;67.29
63194;BME280;49289;51.670;5.624;2022-11-04T03:12:49;100431.64;;;14.33;67.74
63194;BME280;49289;51.670;5.624;2022-11-04T03:14:36;100439.20;;;14.15;68.35
63194;BME280;49289;51.670;5.624;2022-11-04T03:16:26;100434.80;;;14.10;69.00
63194;BME280;49289;51.670;5.624;2022-11-04T03:18:14;100421.70;;;14.36;68.13
63194;BME280;49289;51.670;5.624;2022-11-04T03:20:02;100435.94;;;14.58;67.35
63194;BME280;49289;51.670;5.624;2022-11-04T03:21:50;100432.19;;;14.56;67.25
63194;BME280;49289;51.670;5.624;2022-11-04T03:23:36;100433.70;;;14.75;66.83
63194;BME280;49289;51.670;5.624;2022-11-04T03:25:26;100435.58;;;14.52;67.09
63194;BME280;49289;51.670;5.624;2022-11-04T03:27:13;100417.05;;;14.63;66.46
63194;BME280;49289;51.670;5.624;2022-11-04T03:29:03;100440.75;;;15.01;66.11
63194;BME280;49289;51.670;5.624;2022-11-04T03:30:52;100443.34;;;14.82;65.92
63194;BME280;49289;51.670;5.624;2022-11-04T03:32:41;100447.67;;;14.89;66.20
63194;BME280;49289;51.670;5.624;2022-11-04T03:34:28;100445.33;;;14.37;67.11
63194;BME280;49289;51.670;5.624;2022-11-04T03:36:15;100451.53;;;14.65;66.46
63194;BME280;49289;51.670;5.624;2022-11-04T03:38:03;100448.67;;;14.30;67.06
63194;BME280;49289;51.670;5.624;2022-11-04T03:39:51;100456.00;;;14.53;67.27
63194;BME280;49289;51.670;5.624;2022-11-04T03:41:41;100439.77;;;14.43;67.17
63194;BME280;49289;51.670;5.624;2022-11-04T03:43:29;100455.33;;;14.43;67.25
63194;BME280;49289;51.670;5.624;2022-11-04T03:45:17;100457.75;;;14.67;66.33
63194;BME280;49289;51.670;5.624;2022-11-04T03:47:05;100455.64;;;14.61;66.36
63194;BME280;49289;51.670;5.624;2022-11-04T03:48:53;100456.95;;;14.60;66.29
63194;BME280;49289;51.670;5.624;2022-11-04T03:50:44;100444.33;;;14.82;65.84
63194;BME280;49289;51.670;5.624;2022-11-04T03:52:32;100463.39;;;15.15;65.02
63194;BME280;49289;51.670;5.624;2022-11-04T03:54:20;100449.12;;;15.17;64.72
63194;BME280;49289;51.670;5.624;2022-11-04T03:56:20;100467.30;;;15.25;64.62
63194;BME280;49289;51.670;5.624;2022-11-04T03:58:06;100454.16;;;15.31;63.98
63194;BME280;49289;51.670;5.624;2022-11-04T04:00:13;100458.09;;;15.24;63.73
63194;BME280;49289;51.670;5.624;2022-11-04T04:02:02;100468.86;;;15.30;63.89
63194;BME280;49289;51.670;5.624;2022-11-04T04:03:49;100454.23;;;15.25;63.79
63194;BME280;49289;51.670;5.624;2022-11-04T04:05:37;100452.63;;;15.23;63.46
63194;BME280;49289;51.670;5.624;2022-11-04T04:07:23;100452.98;;;15.24;63.33
63194;BME280;49289;51.670;5.624;2022-11-04T04:09:10;100466.49;;;15.32;63.48
63194;BME280;49289;51.670;5.624;2022-11-04T04:11:01;100471.82;;;15.29;63.35
63194;BME280;49289;51.670;5.624;2022-11-04T04:12:49;100467.55;;;15.26;63.44
63194;BME280;49289;51.670;5.624;2022-11-04T04:14:38;100456.71;;;15.21;63.25
63194;BME280;49289;51.670;5.624;2022-11-04T04:16:26;100463.78;;;15.23;63.09
63194;BME280;49289;51.670;5.624;2022-11-04T04:18:14;100464.34;;;15.18;62.96
63194;BME280;49289;51.670;5.624;2022-11-04T04:20:03;100455.92;;;14.94;63.05
63194;BME280;49289;51.670;5.624;2022-11-04T04:21:51;100457.47;;;14.87;63.40
63194;BME280;49289;51.670;5.624;2022-11-04T04:23:36;100475.15;;;15.06;63.05
63194;BME280;49289;51.670;5.624;2022-11-04T04:25:24;100478.05;;;14.98;62.95
63194;BME280;49289;51.670;5.624;2022-11-04T04:27:10;100462.62;;;14.76;63.30
63194;BME280;49289;51.670;5.624;2022-11-04T04:28:59;100466.21;;;14.78;63.25
63194;BME280;49289;51.670;5.624;2022-11-04T04:30:48;100467.83;;;14.76;63.44
63194;BME280;49289;51.670;5.624;2022-11-04T04:32:38;100489.11;;;14.92;63.23
63194;BME280;49289;51.670;5.624;2022-11-04T04:34:25;100491.22;;;14.90;63.48
63194;BME280;49289;51.670;5.624;2022-11-04T04:36:12;100494.33;;;14.88;63.76
63194;BME280;49289;51.670;5.624;2022-11-04T04:38:01;100478.55;;;14.80;63.97
63194;BME280;49289;51.670;5.624;2022-11-04T04:39:49;100494.42;;;14.89;64.17
63194;BME280;49289;51.670;5.624;2022-11-04T04:41:37;100479.59;;;14.91;63.77
63194;BME280;49289;51.670;5.624;2022-11-04T04:43:27;100481.84;;;14.87;63.76
63194;BME280;49289;51.670;5.624;2022-11-04T04:45:18;100495.59;;;14.72;64.55
63194;BME280;49289;51.670;5.624;2022-11-04T04:47:05;100497.11;;;14.86;63.88
63194;BME280;49289;51.670;5.624;2022-11-04T04:48:53;100496.41;;;14.89;63.55
63194;BME280;49289;51.670;5.624;2022-11-04T04:50:43;100495.43;;;14.85;63.32
63194;BME280;49289;51.670;5.624;2022-11-04T04:52:32;100498.91;;;14.78;63.24
63194;BME280;49289;51.670;5.624;2022-11-04T04:54:18;100498.33;;;14.78;63.12
63194;BME280;49289;51.670;5.624;2022-11-04T04:56:06;100497.27;;;14.69;63.22
63194;BME280;49289;51.670;5.624;2022-11-04T04:57:54;100494.37;;;14.68;63.10
63194;BME280;49289;51.670;5.624;2022-11-04T04:59:42;100493.02;;;14.62;63.06
63194;BME280;49289;51.670;5.624;2022-11-04T05:01:31;100496.52;;;14.56;62.94
63194;BME280;49289;51.670;5.624;2022-11-04T05:03:18;100494.98;;;14.54;62.97
63194;BME280;49289;51.670;5.624;2022-11-04T05:05:05;100497.35;;;14.53;62.87
63194;BME280;49289;51.670;5.624;2022-11-04T05:06:52;100483.27;;;14.40;62.82
63194;BME280;49289;51.670;5.624;2022-11-04T05:08:39;100483.66;;;14.34;62.83
63194;BME280;49289;51.670;5.624;2022-11-04T05:10:26;100500.73;;;14.38;63.02
63194;BME280;49289;51.670;5.624;2022-11-04T05:12:13;100498.88;;;14.36;63.03
63194;BME280;49289;51.670;5.624;2022-11-04T05:14:00;100500.12;;;14.37;62.93
63194;BME280;49289;51.670;5.624;2022-11-04T05:15:47;100502.10;;;14.36;62.84
63194;BME280;49289;51.670;5.624;2022-11-04T05:17:34;100501.81;;;14.34;63.36
63194;BME280;49289;51.670;5.624;2022-11-04T05:19:21;100500.80;;;14.28;63.76
63194;BME280;49289;51.670;5.624;2022-11-04T05:21:10;100502.13;;;14.38;63.25
63194;BME280;49289;51.670;5.624;2022-11-04T05:22:57;100503.57;;;14.35;63.35
63194;BME280;49289;51.670;5.624;2022-11-04T05:24:45;100501.41;;;14.34;63.41
63194;BME280;49289;51.670;5.624;2022-11-04T05:26:34;100506.58;;;14.29;63.79
63194;BME280;49289;51.670;5.624;2022-11-04T05:28:21;100509.29;;;14.37;63.46
63194;BME280;49289;51.670;5.624;2022-11-04T05:30:10;100516.45;;;14.21;63.80
63194;BME280;49289;51.670;5.624;2022-11-04T05:31:58;100522.44;;;14.34;64.01
63194;BME280;49289;51.670;5.624;2022-11-04T05:33:46;100528.03;;;14.46;63.54
63194;BME280;49289;51.670;5.624;2022-11-04T05:35:34;100532.44;;;14.52;63.29
63194;BME280;49289;51.670;5.624;2022-11-04T05:37:22;100518.63;;;14.37;63.21
63194;BME280;49289;51.670;5.624;2022-11-04T05:39:13;100534.14;;;14.46;62.98
63194;BME280;49289;51.670;5.624;2022-11-04T05:40:57;100518.87;;;14.33;63.17
63194;BME280;49289;51.670;5.624;2022-11-04T05:42:44;100536.13;;;14.47;63.03
63194;BME280;49289;51.670;5.624;2022-11-04T05:44:31;100538.81;;;14.39;63.55
63194;BME280;49289;51.670;5.624;2022-11-04T05:46:18;100541.39;;;14.41;63.39
63194;BME280;49289;51.670;5.624;2022-11-04T05:48:09;100546.53;;;14.37;63.13
63194;BME280;49289;51.670;5.624;2022-11-04T05:49:56;100531.52;;;14.25;62.96
63194;BME280;49289;51.670;5.624;2022-11-04T05:51:43;100534.88;;;14.24;63.05
63194;BME280;49289;51.670;5.624;2022-11-04T05:53:15;100538.59;;;14.18;62.92
63194;BME280;49289;51.670;5.624;2022-11-04T05:55:02;100555.41;;;14.27;62.77
63194;BME280;49289;51.670;5.624;2022-11-04T05:56:49;100541.77;;;14.19;62.68
63194;BME280;49289;51.670;5.624;2022-11-04T05:58:38;100558.31;;;14.28;62.63
63194;BME280;49289;51.670;5.624;2022-11-04T06:00:26;100550.92;;;14.15;62.79
63194;BME280;49289;51.670;5.624;2022-11-04T06:03:12;100569.30;;;14.33;62.60
63194;BME280;49289;51.670;5.624;2022-11-04T06:04:59;100566.88;;;14.31;62.75
63194;BME280;49289;51.670;5.624;2022-11-04T06:06:46;100567.23;;;14.28;62.79
63194;BME280;49289;51.670;5.624;2022-11-04T06:08:33;100567.77;;;14.38;62.59
63194;BME280;49289;51.670;5.624;2022-11-04T06:10:21;100570.73;;;14.34;62.66
63194;BME280;49289;51.670;5.624;2022-11-04T06:12:10;100572.09;;;14.24;62.71
63194;BME280;49289;51.670;5.624;2022-11-04T06:13:58;100571.03;;;14.25;63.04
63194;BME280;49289;51.670;5.624;2022-11-04T06:15:46;100572.41;;;14.31;62.95
63194;BME280;49289;51.670;5.624;2022-11-04T06:17:34;100575.69;;;14.26;63.16
63194;BME280;49289;51.670;5.624;2022-11-04T06:19:20;100578.63;;;14.33;63.14
63194;BME280;49289;51.670;5.624;2022-11-04T06:21:28;100568.36;;;14.31;63.02
63194;BME280;49289;51.670;5.624;2022-11-04T06:23:14;100585.26;;;14.47;62.86
63194;BME280;49289;51.670;5.624;2022-11-04T06:25:01;100568.13;;;14.36;62.84
63194;BME280;49289;51.670;5.624;2022-11-04T06:26:48;100586.67;;;14.56;62.68
63194;BME280;49289;51.670;5.624;2022-11-04T06:28:36;100566.77;;;14.48;62.55
63194;BME280;49289;51.670;5.624;2022-11-04T06:30:23;100570.11;;;14.49;62.60
63194;BME280;49289;51.670;5.624;2022-11-04T06:32:11;100571.06;;;14.56;62.49
63194;BME280;49289;51.670;5.624;2022-11-04T06:33:57;100583.45;;;14.63;62.52
63194;BME280;49289;51.670;5.624;2022-11-04T06:35:44;100573.80;;;14.52;62.77
63194;BME280;49289;51.670;5.624;2022-11-04T06:37:31;100574.98;;;14.57;62.73
63194;BME280;49289;51.670;5.624;2022-11-04T06:39:18;100589.37;;;14.66;62.77
63194;BME280;49289;51.670;5.624;2022-11-04T06:41:07;100592.74;;;14.69;62.58
63194;BME280;49289;51.670;5.624;2022-11-04T06:42:55;100573.14;;;14.56;62.70
63194;BME280;49289;51.670;5.624;2022-11-04T06:44:43;100582.56;;;14.61;62.66
63194;BME280;49289;51.670;5.624;2022-11-04T06:46:38;100598.36;;;14.73;62.52
63194;BME280;49289;51.670;5.624;2022-11-04T06:48:26;100598.78;;;14.78;62.55
63194;BME280;49289;51.670;5.624;2022-11-04T06:50:14;100584.31;;;14.73;62.43
63194;BME280;49289;51.670;5.624;2022-11-04T06:52:01;100590.06;;;14.68;62.42
63194;BME280;49289;51.670;5.624;2022-11-04T06:53:48;100607.13;;;14.82;62.43
63194;BME280;49289;51.670;5.624;2022-11-04T06:55:35;100606.37;;;14.85;62.53
63194;BME280;49289;51.670;5.624;2022-11-04T06:57:23;100594.09;;;14.82;62.41
63194;BME280;49289;51.670;5.624;2022-11-04T06:59:10;100598.16;;;14.88;62.34
63194;BME280;49289;51.670;5.624;2022-11-04T07:01:01;100598.33;;;14.92;62.39
63194;BME280;49289;51.670;5.624;2022-11-04T07:02:48;100596.09;;;14.92;62.39
63194;BME280;49289;51.670;5.624;2022-11-04T07:04:36;100610.16;;;14.93;62.49
63194;BME280;49289;51.670;5.624;2022-11-04T07:06:25;100608.20;;;14.94;62.67
63194;BME280;49289;51.670;5.624;2022-11-04T07:08:12;100612.67;;;14.90;62.87
63194;BME280;49289;51.670;5.624;2022-11-04T07:10:00;100618.27;;;15.06;62.67
63194;BME280;49289;51.670;5.624;2022-11-04T07:11:48;100622.55;;;15.13;62.46
63194;BME280;49289;51.670;5.624;2022-11-04T07:13:37;100620.02;;;15.11;62.66
63194;BME280;49289;51.670;5.624;2022-11-04T07:15:25;100608.09;;;15.05;62.62
63194;BME280;49289;51.670;5.624;2022-11-04T07:17:13;100625.88;;;15.23;62.63
63194;BME280;49289;51.670;5.624;2022-11-04T07:19:01;100626.25;;;15.25;62.56
63194;BME280;49289;51.670;5.624;2022-11-04T07:20:49;100616.62;;;15.23;62.48
63194;BME280;49289;51.670;5.624;2022-11-04T07:22:37;100637.56;;;15.29;62.56
63194;BME280;49289;51.670;5.624;2022-11-04T07:24:25;100619.92;;;15.22;62.54
63194;BME280;49289;51.670;5.624;2022-11-04T07:26:12;100630.97;;;15.25;62.75
63194;BME280;49289;51.670;5.624;2022-11-04T07:27:59;100625.24;;;15.29;62.60
63194;BME280;49289;51.670;5.624;2022-11-04T07:29:46;100627.16;;;15.35;62.52
63194;BME280;49289;51.670;5.624;2022-11-04T07:31:34;100647.13;;;15.45;62.56
63194;BME280;49289;51.670;5.624;2022-11-04T07:33:22;100635.66;;;15.38;62.61
63194;BME280;49289;51.670;5.624;2022-11-04T07:35:10;100630.95;;;15.46;62.57
63194;BME280;49289;51.670;5.624;2022-11-04T07:36:58;100634.22;;;15.44;62.81
63194;BME280;49289;51.670;5.624;2022-11-04T07:38:46;100647.66;;;15.60;62.77
63194;BME280;49289;51.670;5.624;2022-11-04T07:40:34;100649.64;;;15.68;62.68
63194;BME280;49289;51.670;5.624;2022-11-04T07:42:22;100634.19;;;15.63;62.65
63194;BME280;49289;51.670;5.624;2022-11-04T07:44:11;100640.45;;;15.68;62.59
63194;BME280;49289;51.670;5.624;2022-11-04T07:46:04;100643.59;;;15.72;62.58
63194;BME280;49289;51.670;5.624;2022-11-04T07:47:50;100643.58;;;15.76;62.45
63194;BME280;49289;51.670;5.624;2022-11-04T07:49:37;100656.03;;;15.79;62.60
63194;BME280;49289;51.670;5.624;2022-11-04T07:51:25;100656.66;;;15.86;62.57
63194;BME280;49289;51.670;5.624;2022-11-04T07:53:13;100644.61;;;15.83;62.50
63194;BME280;49289;51.670;5.624;2022-11-04T07:55:01;100662.27;;;16.01;62.40
63194;BME280;49289;51.670;5.624;2022-11-04T07:56:49;100639.01;;;15.90;62.26
63194;BME280;49289;51.670;5.624;2022-11-04T07:58:38;100664.13;;;16.07;62.36
63194;BME280;49289;51.670;5.624;2022-11-04T08:00:26;100662.44;;;16.10;62.27
63194;BME280;49289;51.670;5.624;2022-11-04T08:02:13;100663.79;;;16.12;62.13
63194;BME280;49289;51.670;5.624;2022-11-04T08:04:02;100643.53;;;15.99;62.10
63194;BME280;49289;51.670;5.624;2022-11-04T08:05:34;100662.67;;;16.15;62.04
63194;BME280;49289;51.670;5.624;2022-11-04T08:07:23;100670.16;;;16.11;62.20
63194;BME280;49289;51.670;5.624;2022-11-04T08:09:11;100658.14;;;16.05;62.02
63194;BME280;49289;51.670;5.624;2022-11-04T08:11:04;100673.16;;;16.19;62.23
63194;BME280;49289;51.670;5.624;2022-11-04T08:12:51;100676.09;;;16.22;62.10
63194;BME280;49289;51.670;5.624;2022-11-04T08:14:39;100676.90;;;16.29;62.22
63194;BME280;49289;51.670;5.624;2022-11-04T08:16:27;100664.95;;;16.18;62.40
63194;BME280;49289;51.670;5.624;2022-11-04T08:18:15;100680.33;;;16.32;62.44
63194;BME280;49289;51.670;5.624;2022-11-04T08:20:02;100680.67;;;16.42;62.34
63194;BME280;49289;51.670;5.624;2022-11-04T08:21:49;100683.63;;;15.96;62.87
63194;BME280;49289;51.670;5.624;2022-11-04T08:23:36;100684.64;;;16.17;62.02
63194;BME280;49289;51.670;5.624;2022-11-04T08:25:23;100671.69;;;16.20;62.21
63194;BME280;49289;51.670;5.624;2022-11-04T08:27:10;100689.56;;;16.41;62.04
63194;BME280;49289;51.670;5.624;2022-11-04T08:28:57;100675.92;;;16.36;61.87
63194;BME280;49289;51.670;5.624;2022-11-04T08:30:50;100694.80;;;16.62;61.63
63194;BME280;49289;51.670;5.624;2022-11-04T08:32:31;100676.76;;;16.68;61.39
63194;BME280;49289;51.670;5.624;2022-11-04T08:34:19;100678.17;;;16.64;61.49
63194;BME280;49289;51.670;5.624;2022-11-04T08:36:07;100697.47;;;16.85;61.39
63194;BME280;49289;51.670;5.624;2022-11-04T08:37:53;100699.34;;;16.30;61.64
63194;BME280;49289;51.670;5.624;2022-11-04T08:39:40;100707.42;;;16.42;61.90
63194;BME280;49289;51.670;5.624;2022-11-04T08:41:28;100704.66;;;16.66;61.46
63194;BME280;49289;51.670;5.624;2022-11-04T08:43:15;100708.45;;;16.09;61.92
63194;BME280;49289;51.670;5.624;2022-11-04T08:45:03;100712.55;;;16.07;62.74
63194;BME280;49289;51.670;5.624;2022-11-04T08:46:51;100711.69;;;15.78;63.43
63194;BME280;49289;51.670;5.624;2022-11-04T08:48:40;100714.99;;;15.86;63.49
63194;BME280;49289;51.670;5.624;2022-11-04T08:50:28;100718.07;;;16.36;62.75
63194;BME280;49289;51.670;5.624;2022-11-04T08:52:16;100721.31;;;16.89;61.66
63194;BME280;49289;51.670;5.624;2022-11-04T08:54:18;100719.56;;;17.07;61.10
63194;BME280;49289;51.670;5.624;2022-11-04T08:56:15;100724.89;;;16.90;61.19
63194;BME280;49289;51.670;5.624;2022-11-04T08:58:00;100729.28;;;17.09;60.87
63194;BME280;49289;51.670;5.624;2022-11-04T08:59:47;100712.19;;;17.36;59.82
63194;BME280;49289;51.670;5.624;2022-11-04T09:01:36;100735.70;;;17.44;59.84
63194;BME280;49289;51.670;5.624;2022-11-04T09:03:23;100736.94;;;17.65;59.53
63194;BME280;49289;51.670;5.624;2022-11-04T09:05:12;100741.77;;;17.52;59.20
63194;BME280;49289;51.670;5.624;2022-11-04T09:07:00;100749.39;;;17.39;59.09
63194;BME280;49289;51.670;5.624;2022-11-04T09:08:48;100753.92;;;17.03;59.93
63194;BME280;49289;51.670;5.624;2022-11-04T09:10:39;100739.69;;;17.01;59.67
63194;BME280;49289;51.670;5.624;2022-11-04T09:12:25;100733.33;;;17.22;59.73
63194;BME280;49289;51.670;5.624;2022-11-04T09:14:12;100752.33;;;17.27;59.63
63194;BME280;49289;51.670;5.624;2022-11-04T09:15:59;100748.90;;;17.44;59.93
63194;BME280;49289;51.670;5.624;2022-11-04T09:17:46;100739.41;;;17.57;59.66
63194;BME280;49289;51.670;5.624;2022-11-04T09:19:33;100728.62;;;17.62;59.11
63194;BME280;49289;51.670;5.624;2022-11-04T09:21:20;100743.80;;;17.57;58.99
63194;BME280;49289;51.670;5.624;2022-11-04T09:23:07;100747.17;;;17.54;59.64
63194;BME280;49289;51.670;5.624;2022-11-04T09:24:54;100728.86;;;17.56;59.19
63194;BME280;49289;51.670;5.624;2022-11-04T09:26:42;100747.26;;;17.73;58.86
63194;BME280;49289;51.670;5.624;2022-11-04T09:28:29;100732.11;;;17.68;58.47
63194;BME280;49289;51.670;5.624;2022-11-04T09:30:17;100741.69;;;17.72;59.01
63194;BME280;49289;51.670;5.624;2022-11-04T09:32:05;100750.13;;;17.70;58.03